Time;durP1;ratioP1;P1;durP2;ratioP2;P2;SDS_P1;SDS_P2;PMS_P1;PMS_P2;Temp;Humidity;BMP_temperature;BMP_pressure;BME280_temperature;BME280_humidity;BME280_pressure;Samples;Min_cycle;Max_cycle;Signal;HPM_P1;HPM_P2
2022/11/16 00:01:19;;;;;;;4.05;2.33;;;12.50;87.70;;;;;;5071598;28;20029;-61
2022/11/16 00:03:45;;;;;;;5.05;2.83;;;12.40;88.00;;;;;;5073063;28;20598;-61
2022/11/16 00:06:12;;;;;;;4.13;2.67;;;12.40;88.00;;;;;;5073133;28;20045;-61
2022/11/16 00:08:41;;;;;;;5.07;2.88;;;12.30;88.30;;;;;;5073065;28;20024;-62
2022/11/16 00:11:13;;;;;;;4.65;3.22;;;12.30;88.70;;;;;;5073039;28;20028;-61
2022/11/16 00:13:40;;;;;;;4.45;3.60;;;12.30;88.90;;;;;;5072969;28;20025;-61
2022/11/16 00:16:07;;;;;;;4.25;3.20;;;12.20;89.20;;;;;;5073141;28;20108;-61
2022/11/16 00:18:33;;;;;;;7.15;3.50;;;12.10;89.50;;;;;;5074141;28;20159;-61
2022/11/16 00:21:01;;;;;;;3.85;3.10;;;12.20;89.80;;;;;;5077183;28;20400;-61
2022/11/16 00:23:27;;;;;;;4.88;3.13;;;12.20;89.90;;;;;;5076934;28;20017;-61
2022/11/16 00:25:52;;;;;;;6.93;4.10;;;12.10;89.80;;;;;;5075796;28;20028;-61
2022/11/16 00:28:18;;;;;;;9.05;3.45;;;12.10;90.00;;;;;;5076719;28;20037;-60
2022/11/16 00:30:44;;;;;;;4.63;3.40;;;12.20;90.10;;;;;;5077000;28;20067;-61
2022/11/16 00:33:14;;;;;;;4.65;3.30;;;12.20;90.20;;;;;;5076724;28;20414;-61
2022/11/16 00:35:40;;;;;;;8.82;4.28;;;12.10;90.30;;;;;;5075444;28;20024;-61
2022/11/16 00:38:06;;;;;;;5.15;3.75;;;12.10;90.50;;;;;;5077270;28;20029;-62
2022/11/16 00:40:32;;;;;;;6.68;4.40;;;12.00;90.60;;;;;;5075367;28;20017;-61
2022/11/16 00:42:57;;;;;;;7.70;3.88;;;12.00;90.70;;;;;;5076703;28;20021;-61
2022/11/16 00:45:23;;;;;;;5.30;3.72;;;12.00;90.90;;;;;;5076510;28;20024;-61
2022/11/16 00:47:48;;;;;;;7.30;4.30;;;12.00;90.90;;;;;;5076472;28;20054;-61
2022/11/16 00:50:14;;;;;;;5.70;3.95;;;12.00;91.00;;;;;;5076710;28;20020;-61
2022/11/16 00:52:40;;;;;;;7.60;4.28;;;11.90;91.00;;;;;;5076337;28;20033;-62
2022/11/16 00:55:06;;;;;;;6.25;4.15;;;11.90;91.20;;;;;;5076291;28;20031;-61
2022/11/16 00:57:32;;;;;;;8.60;4.32;;;12.00;91.40;;;;;;5076056;28;20115;-61
2022/11/16 00:59:57;;;;;;;10.10;5.22;;;11.90;91.40;;;;;;5076079;28;20055;-61
2022/11/16 01:02:23;;;;;;;7.43;4.53;;;11.90;91.50;;;;;;5076381;28;20060;-61
2022/11/16 01:04:48;;;;;;;6.78;4.78;;;11.90;91.50;;;;;;5074812;28;20040;-61
2022/11/16 01:07:14;;;;;;;8.63;4.45;;;11.90;91.70;;;;;;5074734;28;20028;-61
2022/11/16 01:09:40;;;;;;;9.23;5.20;;;12.00;91.80;;;;;;5075960;28;20033;-61
2022/11/16 01:12:08;;;;;;;6.30;4.90;;;11.90;91.70;;;;;;5075946;28;20043;-61
2022/11/16 01:14:43;;;;;;;13.95;6.50;;;11.80;91.80;;;;;;5075871;28;20464;-61
2022/11/16 01:17:08;;;;;;;6.40;4.35;;;11.90;91.90;;;;;;5075766;28;20036;-61
2022/11/16 01:19:35;;;;;;;9.10;5.35;;;11.80;92.00;;;;;;5076134;28;20012;-61
2022/11/16 01:22:00;;;;;;;6.30;5.47;;;11.80;92.00;;;;;;5075998;28;20031;-61
2022/11/16 01:24:26;;;;;;;8.27;4.63;;;11.80;92.20;;;;;;5076157;28;20020;-61
2022/11/16 01:27:01;;;;;;;4.90;4.40;;;11.80;92.30;;;;;;5076215;28;20074;-61
2022/11/16 01:29:29;;;;;;;5.40;4.43;;;11.90;92.40;;;;;;5075591;28;20465;-61
2022/11/16 01:31:55;;;;;;;8.27;4.40;;;11.80;92.30;;;;;;5075508;28;20099;-62
2022/11/16 01:34:21;;;;;;;7.18;4.50;;;11.80;92.40;;;;;;5075566;28;20469;-62
2022/11/16 01:36:47;;;;;;;8.18;4.95;;;11.80;92.40;;;;;;5075411;28;20366;-61
2022/11/16 01:39:14;;;;;;;7.18;4.72;;;11.80;92.50;;;;;;5074193;28;20074;-61
2022/11/16 01:41:40;;;;;;;6.88;4.20;;;11.80;92.70;;;;;;5075560;28;20507;-61
2022/11/16 01:44:32;;;;;;;8.15;4.93;;;11.80;92.60;;;;;;5075428;28;20028;-60
2022/11/16 01:47:07;;;;;;;8.75;4.88;;;11.80;92.60;;;;;;5074157;28;20027;-60
2022/11/16 01:49:36;;;;;;;6.05;4.78;;;11.80;92.50;;;;;;5075985;28;20024;-60
2022/11/16 01:52:06;;;;;;;10.07;4.97;;;11.80;92.70;;;;;;5075423;28;20025;-60
2022/11/16 01:54:37;;;;;;;7.63;5.30;;;11.80;92.80;;;;;;5075411;28;20036;-61
2022/11/16 01:57:04;;;;;;;;;;;11.80;92.80;;;;;;5075330;28;20048;-60
2022/11/16 01:59:30;;;;;;;9.23;5.28;;;11.90;92.70;;;;;;5074945;28;20371;-60
2022/11/16 02:01:58;;;;;;;9.90;5.97;;;11.80;92.70;;;;;;5073575;28;20020;-60
2022/11/16 02:04:24;;;;;;;7.10;4.88;;;11.80;92.70;;;;;;5075176;28;20381;-60
2022/11/16 02:07:07;;;;;;;7.68;5.82;;;11.80;92.80;;;;;;5075226;28;20050;-60
2022/11/16 02:09:52;;;;;;;9.02;5.63;;;11.80;92.80;;;;;;5075070;28;20384;-61
2022/11/16 02:12:24;;;;;;;5.97;4.70;;;11.80;92.90;;;;;;5074871;28;20059;-61
2022/11/16 02:14:52;;;;;;;9.35;5.22;;;11.80;93.00;;;;;;5074784;28;20029;-61
2022/11/16 02:17:38;;;;;;;10.98;5.72;;;11.80;92.90;;;;;;5074706;28;20495;-61
2022/11/16 02:20:22;;;;;;;10.63;5.85;;;11.80;92.90;;;;;;5074548;28;20039;-62
2022/11/16 02:23:34;;;;;;;8.80;5.07;;;11.80;92.90;;;;;;5074656;28;20051;-61
2022/11/16 02:26:15;;;;;;;10.18;5.55;;;11.80;92.80;;;;;;5074754;28;20108;-60
2022/11/16 02:28:59;;;;;;;;;;;11.80;92.80;;;;;;5074974;28;20503;-61
2022/11/16 02:31:31;;;;;;;10.82;6.60;;;11.70;92.70;;;;;;5074737;28;19905;-60
2022/11/16 02:33:59;;;;;;;12.02;6.32;;;11.80;92.90;;;;;;5074388;28;20033;-61
2022/11/16 02:36:25;;;;;;;12.18;6.57;;;11.90;92.80;;;;;;5074376;28;20497;-61
2022/11/16 02:39:03;;;;;;;8.77;6.20;;;11.80;92.60;;;;;;5074129;28;20082;-61
2022/11/16 02:41:35;;;;;;;8.27;6.28;;;11.80;92.80;;;;;;5072172;28;20472;-60
2022/11/16 02:44:11;;;;;;;10.90;6.85;;;11.80;93.00;;;;;;5072986;28;20468;-60
2022/11/16 02:46:41;;;;;;;11.23;6.95;;;11.80;92.90;;;;;;5074521;28;20025;-60
2022/11/16 02:49:12;;;;;;;9.70;6.20;;;11.80;93.00;;;;;;5074151;28;20043;-60
2022/11/16 02:51:39;;;;;;;9.80;6.38;;;11.80;92.80;;;;;;5074658;28;20029;-60
2022/11/16 02:54:20;;;;;;;8.88;6.20;;;11.80;92.80;;;;;;5073929;28;20100;-60
2022/11/16 02:56:51;;;;;;;;;;;11.80;93.00;;;;;;5074170;28;20049;-60
2022/11/16 02:59:17;;;;;;;8.50;6.38;;;11.70;92.90;;;;;;5074133;28;19908;-61
2022/11/16 03:02:06;;;;;;;8.75;6.45;;;11.70;93.00;;;;;;5073751;28;20438;-60
2022/11/16 03:04:50;;;;;;;8.38;6.60;;;11.70;93.10;;;;;;5061747;28;20071;-60
2022/11/16 03:07:22;;;;;;;11.02;6.03;;;11.70;93.20;;;;;;5073876;28;20031;-60
2022/11/16 03:09:50;;;;;;;9.88;5.43;;;11.60;93.10;;;;;;5074209;28;20362;-61
2022/11/16 03:12:21;;;;;;;10.05;5.30;;;11.70;93.30;;;;;;5073563;28;20021;-61
2022/11/16 03:14:52;;;;;;;10.07;6.22;;;11.70;93.20;;;;;;5073940;28;20468;-62
2022/11/16 03:17:28;;;;;;;9.82;6.00;;;11.60;93.20;;;;;;5073795;28;20021;-62
2022/11/16 03:20:22;;;;;;;6.75;5.15;;;11.60;93.30;;;;;;5073449;28;20027;-61
2022/11/16 03:22:57;;;;;;;9.35;5.60;;;11.70;93.40;;;;;;5069895;28;20033;-61
2022/11/16 03:25:25;;;;;;;12.05;6.22;;;11.70;93.40;;;;;;5073415;28;20017;-61
2022/11/16 03:27:59;;;;;;;6.50;4.72;;;11.70;93.50;;;;;;5073567;28;20024;-61
2022/11/16 03:30:28;;;;;;;5.90;4.57;;;11.60;93.30;;;;;;5072028;28;20040;-61
2022/11/16 03:33:19;;;;;;;6.88;4.90;;;11.60;93.30;;;;;;5073460;28;20437;-61
2022/11/16 03:36:08;;;;;;;8.25;5.28;;;11.60;93.40;;;;;;5073820;28;20039;-61
2022/11/16 03:38:35;;;;;;;7.97;5.30;;;11.60;93.40;;;;;;5073286;28;20040;-61
2022/11/16 03:41:05;;;;;;;7.25;5.70;;;11.70;93.50;;;;;;5073275;28;20016;-61
2022/11/16 03:43:32;;;;;;;6.25;4.85;;;11.60;93.40;;;;;;5073299;28;20056;-61
2022/11/16 03:45:58;;;;;;;7.93;4.75;;;11.70;93.50;;;;;;5073420;28;20107;-61
2022/11/16 03:48:24;;;;;;;6.38;4.57;;;11.60;93.40;;;;;;5071884;28;20113;-61
2022/11/16 03:50:50;;;;;;;5.78;3.80;;;11.70;93.40;;;;;;5073292;28;20033;-62
2022/11/16 03:53:16;;;;;;;8.93;4.30;;;11.70;93.50;;;;;;5073047;28;20063;-61
2022/11/16 03:55:43;;;;;;;7.07;5.30;;;11.70;93.40;;;;;;5073274;28;20078;-61
2022/11/16 03:58:09;;;;;;;7.68;4.43;;;11.70;93.30;;;;;;5072968;28;20435;-61
2022/11/16 04:00:35;;;;;;;5.93;4.75;;;11.70;93.20;;;;;;5073167;28;20028;-61
2022/11/16 04:03:00;;;;;;;5.68;3.67;;;11.70;93.20;;;;;;5072996;28;20017;-61
2022/11/16 04:25:19;;;;;;;6.50;2.95;;;11.60;93.40;;;;;;5072597;28;20082;-59
2022/11/16 04:37:47;;;;;;;5.45;2.95;;;11.60;93.50;;;;;;5073106;28;20522;-60
2022/11/16 04:38:43;;;;;;;6.68;2.88;;;11.70;93.50;;;;;;5072606;28;20052;-61
2022/11/16 04:42:13;;;;;;;10.95;3.63;;;11.60;93.40;;;;;;5072942;28;20021;-61
2022/11/16 04:43:56;;;;;;;6.85;2.92;;;11.60;93.50;;;;;;5072402;28;20031;-60
2022/11/16 04:49:06;;;;;;;3.35;2.50;;;11.60;93.50;;;;;;5072359;28;20063;-61
2022/11/16 04:51:31;;;;;;;3.28;2.50;;;11.60;93.40;;;;;;5072417;28;20073;-61
2022/11/16 04:53:57;;;;;;;3.85;2.28;;;11.50;93.30;;;;;;5072395;28;20055;-61
2022/11/16 04:56:22;;;;;;;3.60;1.88;;;11.60;93.40;;;;;;5072083;28;20108;-60
2022/11/16 04:58:48;;;;;;;4.32;2.13;;;11.60;93.30;;;;;;5072243;28;20028;-60
2022/11/16 05:01:14;;;;;;;3.00;1.95;;;11.60;93.20;;;;;;5072410;28;20091;-60
2022/11/16 05:03:39;;;;;;;2.67;1.73;;;11.50;93.10;;;;;;5072195;28;20021;-60
2022/11/16 05:06:05;;;;;;;2.80;1.88;;;11.50;93.20;;;;;;5075365;28;20032;-60
2022/11/16 05:08:31;;;;;;;1.73;1.52;;;11.50;93.10;;;;;;5076276;28;20456;-61
2022/11/16 05:10:56;;;;;;;3.13;1.55;;;11.50;93.10;;;;;;5075912;28;20024;-61
2022/11/16 05:13:22;;;;;;;5.85;1.70;;;11.50;93.10;;;;;;5074567;28;20024;-63
2022/11/16 05:15:47;;;;;;;2.83;1.83;;;11.40;93.00;;;;;;5075951;28;20037;-62
2022/11/16 05:18:13;;;;;;;3.05;1.80;;;11.50;93.10;;;;;;5076211;28;20111;-62
2022/11/16 05:26:07;;;;;;;2.50;1.60;;;11.40;92.80;;;;;;5075723;28;20100;-63
2022/11/16 05:28:32;;;;;;;4.68;2.17;;;11.40;92.90;;;;;;5075761;28;20032;-60
2022/11/16 05:30:58;;;;;;;2.63;1.73;;;11.40;92.90;;;;;;5075622;28;20035;-60
2022/11/16 05:33:23;;;;;;;2.20;1.40;;;11.40;92.80;;;;;;5075435;28;20056;-60
2022/11/16 05:35:50;;;;;;;2.97;1.63;;;11.40;93.00;;;;;;5075538;28;20473;-60
2022/11/16 05:38:16;;;;;;;5.55;1.40;;;11.40;92.70;;;;;;5075618;28;20029;-60
2022/11/16 05:40:42;;;;;;;1.75;1.27;;;11.50;92.70;;;;;;5075282;28;20032;-62
2022/11/16 05:43:08;;;;;;;2.75;1.95;;;11.50;92.60;;;;;;5075478;28;20024;-61
2022/11/16 05:45:33;;;;;;;2.40;1.73;;;11.40;92.60;;;;;;5075277;28;20025;-60
2022/11/16 05:47:59;;;;;;;2.13;1.35;;;11.40;92.70;;;;;;5074095;28;20028;-61
2022/11/16 05:50:24;;;;;;;2.05;1.75;;;11.50;92.60;;;;;;5075539;28;20380;-62
2022/11/16 05:52:50;;;;;;;2.00;1.80;;;11.40;92.50;;;;;;5075270;28;20456;-60
2022/11/16 05:55:16;;;;;;;3.63;2.13;;;11.40;92.40;;;;;;5075124;28;20545;-60
2022/11/16 05:57:41;;;;;;;2.95;2.15;;;11.50;92.50;;;;;;5074991;28;20040;-60
2022/11/16 06:00:08;;;;;;;2.40;2.20;;;11.50;92.50;;;;;;5075196;28;20046;-61
2022/11/16 06:02:33;;;;;;;3.90;2.80;;;11.50;92.60;;;;;;5074936;28;20142;-63
2022/11/16 06:04:59;;;;;;;5.50;3.63;;;11.40;92.70;;;;;;5075215;28;20095;-61
2022/11/16 06:07:25;;;;;;;3.50;2.65;;;11.30;92.70;;;;;;5075144;28;20112;-62
2022/11/16 06:09:50;;;;;;;3.80;2.47;;;11.40;92.70;;;;;;5075081;28;20488;-61
2022/11/16 06:12:16;;;;;;;5.93;3.72;;;11.40;92.90;;;;;;5074866;28;20024;-62
2022/11/16 06:14:41;;;;;;;5.60;2.65;;;11.30;92.70;;;;;;5074729;28;20530;-61
2022/11/16 06:17:07;;;;;;;3.13;2.25;;;11.30;92.60;;;;;;5074986;28;20028;-62
2022/11/16 06:19:34;;;;;;;4.65;2.72;;;11.30;92.70;;;;;;5073439;28;20103;-61
2022/11/16 06:21:59;;;;;;;6.85;2.38;;;11.40;92.60;;;;;;5075037;28;20040;-62
2022/11/16 06:24:25;;;;;;;8.63;2.97;;;11.30;92.60;;;;;;5074737;28;20020;-61
2022/11/16 06:26:51;;;;;;;2.58;2.22;;;11.30;92.80;;;;;;5056723;28;20033;-61
2022/11/16 06:29:16;;;;;;;4.68;2.92;;;11.30;92.70;;;;;;5075121;28;20405;-60
2022/11/16 06:31:42;;;;;;;4.00;2.65;;;11.30;92.90;;;;;;5074473;28;20020;-61
2022/11/16 06:34:08;;;;;;;6.97;3.20;;;11.30;92.90;;;;;;5074481;28;20017;-61
2022/11/16 06:36:33;;;;;;;3.50;3.20;;;11.30;92.90;;;;;;5074422;28;20436;-61
2022/11/16 06:39:00;;;;;;;4.60;3.28;;;11.30;92.90;;;;;;5072894;28;20025;-62
2022/11/16 06:41:25;;;;;;;4.18;3.15;;;11.40;93.00;;;;;;5075281;28;20380;-61
2022/11/16 06:43:51;;;;;;;6.03;3.50;;;11.30;93.00;;;;;;5074153;28;20028;-62
2022/11/16 16:01:28;;;;;;;7.38;3.65;;;11.50;76.10;;;;;;5111784;27;20105;-61
2022/11/16 16:03:57;;;;;;;5.00;1.80;;;11.50;76.30;;;;;;5111651;28;20073;-61
2022/11/16 16:06:44;;;;;;;3.33;1.95;;;11.50;76.60;;;;;;5110989;28;20093;-61
2022/11/16 16:09:33;;;;;;;4.47;1.75;;;11.50;77.10;;;;;;5110855;28;20090;-61
2022/11/16 16:12:20;;;;;;;8.90;2.13;;;11.50;76.80;;;;;;5110693;28;20114;-61
2022/11/16 16:14:48;;;;;;;10.63;2.30;;;11.50;77.00;;;;;;5110911;28;20101;-62
2022/11/16 16:17:24;;;;;;;6.70;2.83;;;11.60;76.50;;;;;;5109535;28;20016;-61
2022/11/16 16:19:59;;;;;;;14.50;4.13;;;11.50;76.80;;;;;;5110868;28;20020;-61
2022/11/16 16:22:34;;;;;;;6.40;2.08;;;11.50;77.00;;;;;;5109344;28;20027;-61
2022/11/16 16:25:01;;;;;;;6.55;2.30;;;11.50;76.60;;;;;;5110204;28;20028;-61
2022/11/16 16:27:29;;;;;;;9.05;2.20;;;11.50;76.90;;;;;;5109016;28;20013;-61
2022/11/16 16:29:57;;;;;;;7.15;2.42;;;11.70;76.90;;;;;;5110610;28;20032;-62
2022/11/16 16:32:28;;;;;;;5.80;2.85;;;11.50;77.00;;;;;;5110617;28;20073;-63
2022/11/16 16:35:02;;;;;;;10.07;2.58;;;11.40;77.40;;;;;;5110414;28;20039;-64
2022/11/16 16:37:32;;;;;;;21.13;5.13;;;11.40;77.30;;;;;;5109564;28;20063;-62
2022/11/16 16:39:59;;;;;;;13.32;5.10;;;11.40;77.60;;;;;;5110975;28;20054;-61
2022/11/16 16:42:25;;;;;;;10.68;4.32;;;11.50;77.30;;;;;;5109263;28;20027;-62
2022/11/16 16:44:51;;;;;;;12.95;4.20;;;11.60;77.00;;;;;;5108807;28;20020;-62
2022/11/16 16:47:21;;;;;;;11.30;3.22;;;11.60;76.50;;;;;;5109151;28;20039;-62
2022/11/16 16:49:48;;;;;;;12.55;3.90;;;11.70;76.90;;;;;;5108932;28;20067;-61
2022/11/16 16:52:14;;;;;;;9.43;3.20;;;11.60;76.80;;;;;;5110288;28;20040;-65
2022/11/16 16:54:40;;;;;;;11.00;2.95;;;11.70;76.70;;;;;;5109586;28;20076;-61
2022/11/16 16:57:10;;;;;;;6.90;2.60;;;11.80;76.20;;;;;;5109917;28;20379;-61
2022/11/16 16:59:36;;;;;;;6.43;3.33;;;11.80;76.10;;;;;;5108330;28;20050;-61
2022/11/16 17:02:01;;;;;;;8.25;2.95;;;11.80;76.20;;;;;;5110071;28;20360;-61
2022/11/16 17:04:27;;;;;;;8.25;3.20;;;11.80;76.30;;;;;;5110517;28;20037;-63
2022/11/16 17:06:53;;;;;;;9.23;3.53;;;11.80;76.10;;;;;;5109916;28;20020;-62
2022/11/16 17:09:19;;;;;;;19.65;4.18;;;11.80;76.00;;;;;;5109929;28;20030;-63
2022/11/16 17:11:47;;;;;;;10.75;4.82;;;11.80;76.30;;;;;;5101753;28;20024;-61
2022/11/16 17:14:12;;;;;;;13.80;4.40;;;11.70;76.40;;;;;;5096044;28;20085;-61
2022/11/16 17:16:38;;;;;;;8.55;3.20;;;11.60;77.10;;;;;;5096110;28;20016;-62
2022/11/16 17:19:04;;;;;;;9.45;3.97;;;11.50;77.50;;;;;;5095823;28;20119;-62
2022/11/16 17:21:30;;;;;;;6.07;2.70;;;11.40;77.40;;;;;;5095967;28;20062;-62
2022/11/16 17:23:56;;;;;;;6.68;2.60;;;11.40;77.70;;;;;;5095931;28;20376;-60
2022/11/16 17:26:23;;;;;;;7.18;2.75;;;11.50;77.50;;;;;;5096037;28;20073;-61
2022/11/16 17:28:54;;;;;;;5.15;2.85;;;11.40;77.50;;;;;;5095769;28;20028;-62
2022/11/16 17:31:20;;;;;;;5.38;2.38;;;11.40;78.00;;;;;;5095872;28;20028;-61
2022/11/16 17:33:46;;;;;;;4.72;2.20;;;11.40;78.00;;;;;;5096286;28;20077;-62
2022/11/16 17:36:13;;;;;;;7.13;2.90;;;11.40;77.90;;;;;;5096623;28;20047;-61
2022/11/16 17:38:39;;;;;;;7.03;2.67;;;11.30;78.30;;;;;;5094659;28;20028;-61
2022/11/16 17:41:11;;;;;;;9.23;2.33;;;11.30;78.60;;;;;;5096210;28;20077;-62
2022/11/16 17:43:38;;;;;;;10.32;2.75;;;11.20;78.60;;;;;;5095667;28;20031;-61
2022/11/16 17:46:08;;;;;;;7.75;2.53;;;11.30;78.70;;;;;;5096549;28;20149;-61
2022/11/16 17:48:36;;;;;;;8.82;2.38;;;11.30;78.40;;;;;;5094444;28;20027;-62
2022/11/16 17:51:02;;;;;;;8.75;3.15;;;11.30;79.00;;;;;;5095570;28;20032;-61
2022/11/16 17:53:28;;;;;;;6.63;2.38;;;11.20;79.10;;;;;;5096643;28;20027;-61
2022/11/16 17:55:53;;;;;;;6.53;2.35;;;11.30;79.00;;;;;;5095830;28;20415;-63
2022/11/16 17:58:19;;;;;;;7.32;2.67;;;11.20;79.10;;;;;;5095787;28;20051;-62
2022/11/16 18:00:47;;;;;;;11.30;3.78;;;11.20;79.40;;;;;;5094927;28;20044;-62
2022/11/16 18:03:13;;;;;;;4.57;2.25;;;11.10;79.70;;;;;;5095277;28;20016;-61
2022/11/16 18:05:39;;;;;;;19.50;5.63;;;11.20;79.50;;;;;;5095456;28;20046;-61
2022/11/16 18:08:06;;;;;;;8.10;3.15;;;11.10;79.50;;;;;;5094711;28;20434;-62
2022/11/16 18:10:35;;;;;;;9.70;2.83;;;11.10;79.70;;;;;;5094871;28;20031;-63
2022/11/16 18:13:02;;;;;;;10.10;3.38;;;11.10;79.70;;;;;;5093322;28;20138;-62
2022/11/16 18:15:28;;;;;;;8.10;2.70;;;11.10;79.50;;;;;;5095101;28;20484;-62
2022/11/16 18:17:55;;;;;;;9.05;2.60;;;11.10;79.90;;;;;;5095068;28;20063;-63
2022/11/16 18:20:23;;;;;;;4.88;2.95;;;11.20;79.40;;;;;;5095150;28;20024;-61
2022/11/16 18:22:48;;;;;;;7.93;2.83;;;11.10;79.50;;;;;;5094441;28;20020;-63
2022/11/16 18:25:14;;;;;;;8.73;3.22;;;11.00;79.80;;;;;;5094665;28;20161;-63
2022/11/16 18:27:40;;;;;;;10.57;2.95;;;10.90;80.00;;;;;;5094857;28;20153;-62
2022/11/16 18:30:07;;;;;;;8.50;2.20;;;10.80;80.30;;;;;;5094528;28;20384;-63
2022/11/16 18:32:33;;;;;;;6.40;2.78;;;10.80;80.90;;;;;;5094591;28;20031;-61
2022/11/16 18:34:58;;;;;;;5.32;2.35;;;10.70;81.20;;;;;;5094609;28;20097;-61
2022/11/16 18:37:24;;;;;;;7.00;3.45;;;10.70;81.20;;;;;;5094444;28;20062;-62
2022/11/16 18:39:49;;;;;;;9.70;3.45;;;10.80;81.00;;;;;;5093153;28;20020;-62
2022/11/16 18:42:15;;;;;;;9.93;2.78;;;10.70;81.10;;;;;;5094729;28;20020;-62
2022/11/16 18:44:41;;;;;;;8.15;2.90;;;10.60;81.10;;;;;;5094438;28;20024;-61
2022/11/16 18:47:06;;;;;;;7.65;3.22;;;10.60;81.40;;;;;;5094112;28;20048;-61
2022/11/16 18:49:32;;;;;;;12.73;3.08;;;10.60;81.70;;;;;;5094448;28;20024;-60
2022/11/16 18:51:57;;;;;;;6.50;2.88;;;10.50;81.90;;;;;;5094606;28;20028;-62
2022/11/16 18:54:23;;;;;;;9.80;3.10;;;10.40;82.10;;;;;;5092913;28;20047;-62
2022/11/16 18:56:48;;;;;;;12.32;4.05;;;10.20;82.40;;;;;;5094439;28;20036;-61
2022/11/16 18:59:14;;;;;;;13.25;2.83;;;10.20;82.80;;;;;;5093848;28;20384;-60
2022/11/16 19:01:40;;;;;;;9.15;3.78;;;10.20;82.70;;;;;;5094421;28;20028;-62
2022/11/16 19:04:07;;;;;;;8.90;2.97;;;10.10;83.20;;;;;;5094288;28;20372;-61
2022/11/16 19:06:33;;;;;;;7.07;2.35;;;10.00;83.30;;;;;;5094174;28;20483;-62
2022/11/16 19:08:59;;;;;;;10.45;2.80;;;10.10;83.80;;;;;;5094444;28;20055;-61
2022/11/16 19:11:27;;;;;;;11.43;3.55;;;9.90;83.70;;;;;;5093985;28;20388;-60
2022/11/16 19:13:55;;;;;;;18.17;4.22;;;9.80;84.20;;;;;;5092605;28;20020;-62
2022/11/16 19:16:21;;;;;;;9.35;3.50;;;9.80;84.50;;;;;;5093836;28;20099;-61
2022/11/16 19:18:47;;;;;;;10.43;3.50;;;9.70;84.90;;;;;;5093982;28;20110;-61
2022/11/16 19:21:14;;;;;;;8.40;2.60;;;9.80;85.00;;;;;;5093905;28;20460;-61
2022/11/16 19:23:48;;;;;;;12.93;3.65;;;9.90;84.30;;;;;;5094021;28;20099;-63
2022/11/16 19:26:15;;;;;;;6.22;2.50;;;10.00;83.90;;;;;;5093734;28;20161;-61
2022/11/16 19:28:43;;;;;;;10.63;4.30;;;9.80;83.60;;;;;;5093876;28;20094;-62
2022/11/16 19:31:30;;;;;;;10.45;3.35;;;9.80;84.00;;;;;;5093504;28;20028;-63
2022/11/16 19:34:03;;;;;;;13.68;3.70;;;9.80;84.50;;;;;;5093766;28;20096;-62
2022/11/16 19:36:30;;;;;;;17.60;3.55;;;9.70;84.40;;;;;;5094088;28;20031;-62
2022/11/16 19:38:57;;;;;;;11.30;4.28;;;9.60;84.60;;;;;;5092357;28;20107;-62
2022/11/16 19:41:23;;;;;;;13.40;4.03;;;9.60;84.80;;;;;;5093498;28;20028;-62
2022/11/16 19:43:58;;;;;;;9.43;2.95;;;9.70;84.90;;;;;;5093761;28;20020;-61
2022/11/16 19:46:25;;;;;;;17.63;5.25;;;9.60;84.60;;;;;;5092020;28;20020;-61
2022/11/16 19:48:51;;;;;;;12.13;4.13;;;9.50;85.00;;;;;;5093080;28;20024;-62
2022/11/16 19:51:24;;;;;;;8.30;3.17;;;9.70;85.20;;;;;;5093085;28;20028;-61
2022/11/16 19:53:50;;;;;;;7.22;4.30;;;9.50;85.10;;;;;;5093084;28;20035;-61
2022/11/16 19:56:18;;;;;;;7.22;4.18;;;9.40;85.60;;;;;;5092015;28;20028;-61
2022/11/16 19:58:44;;;;;;;9.73;4.65;;;9.50;85.50;;;;;;5093429;28;20540;-61
2022/11/16 20:01:13;;;;;;;13.18;3.40;;;9.40;85.70;;;;;;5093170;28;20047;-62
2022/11/16 20:03:40;;;;;;;7.88;4.63;;;9.40;86.20;;;;;;5093187;28;20024;-61
2022/11/16 20:06:11;;;;;;;9.98;4.20;;;9.70;85.80;;;;;;5093223;28;20025;-62
2022/11/16 20:08:38;;;;;;;17.95;6.78;;;9.70;85.40;;;;;;5093770;28;20020;-62
2022/11/16 20:11:19;;;;;;;12.45;5.15;;;9.70;85.10;;;;;;5093493;28;20028;-61
2022/11/16 20:13:45;;;;;;;11.82;4.38;;;9.70;85.10;;;;;;5093604;28;20028;-62
2022/11/16 20:16:12;;;;;;;9.75;3.75;;;9.60;85.50;;;;;;5093724;28;20028;-62
2022/11/16 20:18:39;;;;;;;9.02;3.67;;;9.60;85.60;;;;;;5093542;28;20472;-62
2022/11/16 20:21:06;;;;;;;13.88;4.00;;;9.50;85.70;;;;;;5092204;28;20025;-61
2022/11/16 20:23:33;;;;;;;10.38;4.35;;;9.50;85.90;;;;;;5093535;28;20024;-62
2022/11/16 20:26:04;;;;;;;13.60;3.78;;;9.40;86.00;;;;;;5091979;28;20111;-62
2022/11/16 20:28:33;;;;;;;12.18;3.53;;;9.50;86.20;;;;;;5093034;28;20471;-62
2022/11/16 20:31:03;;;;;;;8.07;3.13;;;9.60;85.70;;;;;;5093032;28;20027;-62
2022/11/16 20:33:32;;;;;;;14.23;4.13;;;9.50;86.10;;;;;;5093052;28;20069;-62
2022/11/16 20:36:02;;;;;;;7.55;4.88;;;9.40;86.10;;;;;;5093022;28;20031;-62
2022/11/16 20:38:28;;;;;;;10.93;3.72;;;9.30;86.40;;;;;;5092995;28;20023;-61
2022/11/16 20:40:54;;;;;;;11.73;4.35;;;9.50;86.40;;;;;;5092871;28;20357;-62
2022/11/16 20:43:19;;;;;;;11.07;3.72;;;9.60;86.10;;;;;;5092921;28;20020;-62
2022/11/16 20:45:50;;;;;;;7.68;3.55;;;9.70;85.90;;;;;;5092972;28;20035;-63
2022/11/16 20:48:16;;;;;;;15.18;3.72;;;9.80;85.80;;;;;;5096651;28;20020;-61
2022/11/16 20:50:42;;;;;;;8.35;3.75;;;9.80;85.70;;;;;;5096717;28;20027;-61
2022/11/16 20:53:07;;;;;;;10.73;4.15;;;9.80;85.30;;;;;;5096576;28;20080;-62
2022/11/16 20:55:33;;;;;;;7.43;4.65;;;9.80;85.30;;;;;;5096620;28;20027;-62
2022/11/16 20:57:58;;;;;;;11.82;4.28;;;9.90;85.20;;;;;;5096940;28;20032;-61
2022/11/16 21:00:24;;;;;;;10.18;4.25;;;10.00;84.80;;;;;;5096385;28;20048;-62
2022/11/16 21:02:49;;;;;;;5.20;3.17;;;10.10;84.70;;;;;;5097317;28;20043;-61
2022/11/16 21:05:15;;;;;;;11.57;3.92;;;10.20;84.50;;;;;;5096414;28;20032;-61
2022/11/16 21:07:42;;;;;;;10.35;4.65;;;10.10;84.40;;;;;;5097144;28;20020;-61
2022/11/16 21:10:18;;;;;;;8.48;3.92;;;10.10;84.50;;;;;;5096271;28;20070;-61
2022/11/16 21:15:28;;;;;;;9.20;3.95;;;10.10;85.00;;;;;;5096349;28;20093;-61
2022/11/16 21:17:53;;;;;;;8.10;2.83;;;10.20;84.90;;;;;;5096456;28;20028;-62
2022/11/16 21:20:19;;;;;;;8.00;3.70;;;10.30;84.60;;;;;;5096411;28;20459;-61
2022/11/16 21:22:45;;;;;;;12.88;3.40;;;10.20;84.30;;;;;;5094851;28;20030;-60
2022/11/16 21:25:10;;;;;;;12.27;3.92;;;10.20;84.20;;;;;;5096637;28;20095;-61
2022/11/16 21:27:36;;;;;;;17.90;6.70;;;10.20;84.40;;;;;;5096161;28;20016;-61
2022/11/16 21:30:02;;;;;;;10.60;5.15;;;10.30;84.50;;;;;;5096761;28;20032;-61
2022/11/16 21:32:28;;;;;;;9.73;3.33;;;10.20;84.20;;;;;;5095976;28;20032;-61
2022/11/16 21:34:53;;;;;;;9.48;3.80;;;10.30;84.30;;;;;;5096345;28;20066;-62
2022/11/16 21:37:19;;;;;;;12.18;4.70;;;10.30;84.00;;;;;;5095871;28;20024;-62
2022/11/16 21:39:44;;;;;;;9.48;3.95;;;10.30;84.00;;;;;;5095834;28;20032;-61
2022/11/16 21:42:10;;;;;;;9.43;3.85;;;10.30;84.10;;;;;;5095537;28;20467;-61
2022/11/16 21:44:43;;;;;;;10.05;3.45;;;10.30;84.00;;;;;;5095710;28;20016;-61
2022/11/16 21:47:12;;;;;;;12.77;5.55;;;10.30;84.00;;;;;;5096102;28;20024;-61
2022/11/16 21:49:37;;;;;;;6.57;3.38;;;10.30;84.00;;;;;;5094439;28;20066;-61
2022/11/16 21:52:04;;;;;;;10.95;3.78;;;10.30;84.30;;;;;;5095635;28;20384;-61
2022/11/16 21:54:54;;;;;;;11.52;4.28;;;10.30;84.30;;;;;;5095480;28;20044;-61
2022/11/16 21:57:20;;;;;;;;;;;10.30;84.20;;;;;;5096858;28;20039;-61
2022/11/16 21:59:46;;;;;;;6.20;2.58;;;10.30;84.10;;;;;;5095492;28;20256;-61
2022/11/16 22:02:13;;;;;;;5.95;3.30;;;10.30;84.30;;;;;;5095373;28;20023;-61
2022/11/16 22:07:31;;;;;;;4.95;2.95;;;10.50;83.90;;;;;;5095538;28;20421;-61
2022/11/16 22:10:01;;;;;;;7.45;3.92;;;10.50;83.70;;;;;;5095579;28;20039;-61
2022/11/16 22:12:28;;;;;;;13.90;3.13;;;10.50;83.40;;;;;;5095145;28;20040;-61
2022/11/16 22:14:54;;;;;;;6.43;2.13;;;10.50;83.60;;;;;;5095107;28;20032;-61
2022/11/16 22:17:20;;;;;;;5.55;2.45;;;10.50;83.70;;;;;;5095078;28;20024;-61
2022/11/16 22:19:46;;;;;;;14.52;3.20;;;10.50;83.70;;;;;;5094995;28;20025;-61
2022/11/16 22:22:12;;;;;;;8.57;2.63;;;10.40;84.00;;;;;;5095250;28;20039;-62
2022/11/16 22:24:37;;;;;;;4.68;2.03;;;10.50;84.20;;;;;;5094902;28;20024;-61
2022/11/16 22:27:03;;;;;;;17.23;9.05;;;10.50;84.10;;;;;;5094885;28;20473;-63
2022/11/16 22:29:29;;;;;;;10.25;4.72;;;10.50;84.00;;;;;;5094818;28;20461;-61
2022/11/16 22:31:54;;;;;;;5.82;2.30;;;10.60;84.00;;;;;;5093553;28;20107;-60
2022/11/16 22:34:20;;;;;;;10.60;2.40;;;10.60;83.80;;;;;;5094801;28;20016;-61
2022/11/16 22:36:45;;;;;;;7.82;2.35;;;10.70;83.80;;;;;;5094485;28;20025;-62
2022/11/16 22:39:11;;;;;;;11.10;2.47;;;10.80;83.60;;;;;;5094554;28;20103;-62
2022/11/16 22:41:37;;;;;;;8.48;2.28;;;10.80;83.50;;;;;;5094783;28;20357;-62
2022/11/16 22:44:02;;;;;;;8.82;2.70;;;10.80;83.40;;;;;;5094552;28;20024;-61
2022/11/16 22:46:28;;;;;;;4.10;1.95;;;10.80;83.50;;;;;;5094813;28;20019;-61
2022/11/16 22:48:54;;;;;;;4.88;1.88;;;10.80;83.60;;;;;;5076275;28;20024;-61